createdAt,value
2022-10-05T00:02:27.136Z,9.27
2022-10-05T00:04:59.468Z,9.25
2022-10-05T00:07:31.568Z,9.21
2022-10-05T00:10:01.786Z,9.25
2022-10-05T00:12:34.902Z,9.26
2022-10-05T00:15:11.768Z,9.22
2022-10-05T00:17:43.954Z,9.19
2022-10-05T00:20:28.290Z,9.15
2022-10-05T00:23:02.849Z,9.13
2022-10-05T00:25:31.915Z,9.06
2022-10-05T00:28:05.001Z,9.03
2022-10-05T00:30:37.028Z,9.04
2022-10-05T00:33:05.937Z,9.02
2022-10-05T00:35:37.555Z,8.97
2022-10-05T00:38:07.567Z,8.92
2022-10-05T00:41:01.832Z,8.92
2022-10-05T00:44:00.911Z,8.90
2022-10-05T00:46:48.033Z,8.84
2022-10-05T00:49:37.637Z,8.80
2022-10-05T00:52:25.120Z,8.75
2022-10-05T00:55:09.637Z,8.72
2022-10-05T00:57:56.449Z,8.71
2022-10-05T01:00:31.129Z,8.72
2022-10-05T01:03:10.707Z,8.72
2022-10-05T01:06:08.678Z,8.65
2022-10-05T01:08:56.668Z,8.64
2022-10-05T01:11:34.665Z,8.62
2022-10-05T01:14:14.868Z,8.59
2022-10-05T01:16:54.556Z,8.50
2022-10-05T01:19:48.522Z,8.42
2022-10-05T01:22:37.734Z,8.43
2022-10-05T01:25:25.116Z,8.42
2022-10-05T01:28:07.184Z,8.31
2022-10-05T01:30:44.220Z,8.38
2022-10-05T01:33:25.863Z,8.33
2022-10-05T01:36:12.807Z,8.31
2022-10-05T01:38:54.345Z,8.33
2022-10-05T01:41:35.827Z,8.32
2022-10-05T01:44:14.843Z,8.30
2022-10-05T01:46:56.801Z,8.27
2022-10-05T01:49:39.785Z,8.24
2022-10-05T01:52:29.881Z,8.28
2022-10-05T01:55:18.257Z,8.27
2022-10-05T01:58:08.758Z,8.31
2022-10-05T02:00:52.071Z,8.32
2022-10-05T02:03:26.375Z,8.33
2022-10-05T02:06:03.889Z,8.36
2022-10-05T02:08:42.199Z,8.40
2022-10-05T02:11:16.023Z,8.44
2022-10-05T02:13:51.766Z,8.46
2022-10-05T02:16:31.409Z,8.50
2022-10-05T02:19:09.527Z,8.51
2022-10-05T02:21:40.359Z,8.52
2022-10-05T02:24:18.932Z,8.53
2022-10-05T02:27:00.367Z,8.61
2022-10-05T02:29:35.649Z,8.62
2022-10-05T02:32:11.523Z,8.65
2022-10-05T02:34:42.785Z,8.66
2022-10-05T02:37:30.384Z,8.72
2022-10-05T02:40:17.119Z,8.75
2022-10-05T02:42:57.969Z,8.77
2022-10-05T02:45:42.717Z,8.80
2022-10-05T02:48:26.866Z,8.83
2022-10-05T02:51:11.418Z,8.82
2022-10-05T02:53:54.527Z,8.83
2022-10-05T02:56:35.181Z,8.89
2022-10-05T02:59:16.793Z,8.90
2022-10-05T03:01:52.271Z,8.90
2022-10-05T03:04:39.678Z,8.91
2022-10-05T03:07:19.112Z,8.89
2022-10-05T03:10:01.276Z,8.90
2022-10-05T03:12:49.598Z,8.90
2022-10-05T03:15:51.504Z,8.93
2022-10-05T03:18:39.199Z,8.96
2022-10-05T03:21:36.562Z,8.99
2022-10-05T03:24:36.466Z,9.01
2022-10-05T03:27:19.137Z,9.04
2022-10-05T03:30:01.286Z,9.08
2022-10-05T03:32:46.345Z,9.11
2022-10-05T03:35:28.357Z,9.15
2022-10-05T03:38:15.781Z,9.17
2022-10-05T03:40:56.087Z,9.18
2022-10-05T03:43:54.080Z,9.22
2022-10-05T03:46:40.278Z,9.24
2022-10-05T03:49:18.937Z,9.25
2022-10-05T03:51:54.541Z,9.28
2022-10-05T03:54:31.372Z,9.31
2022-10-05T03:57:11.727Z,9.35
2022-10-05T03:59:48.575Z,9.38
2022-10-05T04:02:25.989Z,9.42
2022-10-05T04:05:03.335Z,9.44
2022-10-05T04:07:43.656Z,9.48
2022-10-05T04:10:22.871Z,9.50
2022-10-05T04:13:00.199Z,9.55
2022-10-05T04:15:41.229Z,9.58
2022-10-05T04:18:25.200Z,9.61
2022-10-05T04:21:00.702Z,9.64
2022-10-05T04:23:45.762Z,9.70
2022-10-05T04:26:22.316Z,9.72
2022-10-05T04:29:02.265Z,9.76
2022-10-05T04:31:58.646Z,9.80
2022-10-05T04:34:51.506Z,9.83
2022-10-05T04:37:34.130Z,9.86
2022-10-05T04:40:23.746Z,9.90
2022-10-05T04:43:09.616Z,9.91
2022-10-05T04:46:15.036Z,9.93
2022-10-05T04:49:19.219Z,9.96
2022-10-05T04:52:00.136Z,9.98
2022-10-05T04:54:50.046Z,10.00
2022-10-05T04:57:28.651Z,10.01
2022-10-05T05:00:21.776Z,10.05
2022-10-05T05:03:22.715Z,10.06
2022-10-05T05:06:16.851Z,10.09
2022-10-05T05:09:28.005Z,10.11
2022-10-05T05:12:25.537Z,10.13
2022-10-05T05:15:22.543Z,10.16
2022-10-05T05:18:28.106Z,10.19
2022-10-05T05:21:08.195Z,10.20
2022-10-05T05:23:45.743Z,10.23
2022-10-05T05:26:29.241Z,10.24
2022-10-05T05:29:16.010Z,10.25
2022-10-05T05:31:55.036Z,10.28
2022-10-05T05:34:43.818Z,10.28
2022-10-05T05:37:24.833Z,10.30
2022-10-05T05:40:07.905Z,10.31
2022-10-05T05:42:52.994Z,10.33
2022-10-05T05:45:36.709Z,10.35
2022-10-05T05:48:18.212Z,10.34
2022-10-05T05:50:58.458Z,10.38
2022-10-05T05:53:34.303Z,10.39
2022-10-05T05:56:12.211Z,10.39
2022-10-05T05:58:52.216Z,10.39
2022-10-05T06:01:34.025Z,10.41
2022-10-05T06:04:13.698Z,10.40
2022-10-05T06:06:49.771Z,10.40
2022-10-05T06:09:27.428Z,10.42
2022-10-05T06:11:59.837Z,10.44
2022-10-05T06:14:38.707Z,10.46
2022-10-05T06:17:16.435Z,10.48
2022-10-05T06:19:50.154Z,10.50
2022-10-05T06:22:26.900Z,10.51
2022-10-05T06:25:09.669Z,10.53
2022-10-05T06:27:39.978Z,10.55
2022-10-05T06:30:14.415Z,10.59
2022-10-05T06:33:11.405Z,10.61
2022-10-05T06:36:09.528Z,10.65
2022-10-05T06:39:16.874Z,10.71
2022-10-05T06:42:11.208Z,10.75
2022-10-05T06:44:54.269Z,10.80
2022-10-05T06:47:37.322Z,10.83
2022-10-05T06:50:21.639Z,10.89
2022-10-05T06:53:23.111Z,10.93
2022-10-05T06:56:00.699Z,10.97
2022-10-05T06:58:50.285Z,11.01
2022-10-05T07:01:46.369Z,11.07
2022-10-05T07:04:37.196Z,11.11
2022-10-05T07:07:18.424Z,11.16
2022-10-05T07:10:07.599Z,11.23
2022-10-05T07:12:54.869Z,11.28
2022-10-05T07:15:44.112Z,11.35
2022-10-05T07:18:41.501Z,11.39
2022-10-05T07:21:25.410Z,11.43
2022-10-05T07:24:12.052Z,11.50
2022-10-05T07:26:47.763Z,11.52
2022-10-05T07:29:29.290Z,11.58
2022-10-05T07:32:15.929Z,11.63
2022-10-05T07:34:59.474Z,11.69
2022-10-05T07:37:57.736Z,11.73
2022-10-05T07:40:34.757Z,11.79
2022-10-05T07:43:22.782Z,11.85
2022-10-05T07:45:58.536Z,11.87
2022-10-05T07:48:53.441Z,11.89
2022-10-05T07:51:36.103Z,11.91
2022-10-05T07:54:25.650Z,11.94
2022-10-05T07:57:07.524Z,11.99
2022-10-05T07:59:48.652Z,12.00
2022-10-05T08:02:29.115Z,12.03
2022-10-05T08:05:06.588Z,12.04
2022-10-05T08:07:38.518Z,12.07
2022-10-05T08:10:27.102Z,12.10
2022-10-05T08:13:13.562Z,12.14
2022-10-05T08:15:48.655Z,12.16
2022-10-05T08:18:26.691Z,12.18
2022-10-05T08:20:59.881Z,12.21
2022-10-05T08:23:39.111Z,12.22
2022-10-05T08:26:23.377Z,12.26
2022-10-05T08:29:13.916Z,12.30
2022-10-05T08:31:51.450Z,12.31
2022-10-05T08:34:31.682Z,12.32
2022-10-05T08:37:07.135Z,12.29
2022-10-05T08:39:42.709Z,12.28
2022-10-05T08:43:00.616Z,12.36
2022-10-05T08:46:14.278Z,12.38
2022-10-05T08:49:38.832Z,12.36
2022-10-05T08:52:28.941Z,12.38
2022-10-05T08:55:38.868Z,12.45
2022-10-05T08:58:53.822Z,12.48
2022-10-05T09:01:36.748Z,12.46
2022-10-05T09:04:45.880Z,12.50
2022-10-05T09:07:53.841Z,12.51
2022-10-05T09:11:04.298Z,12.51
2022-10-05T09:14:17.092Z,12.54
2022-10-05T09:17:38.503Z,12.52
2022-10-05T09:20:41.710Z,12.58
2022-10-05T09:23:19.269Z,12.61
2022-10-05T09:26:04.220Z,12.62
2022-10-05T09:28:50.577Z,12.63
2022-10-05T09:31:52.477Z,12.67
2022-10-05T09:35:02.363Z,12.69
2022-10-05T09:37:58.079Z,12.71
2022-10-05T09:41:25.765Z,12.76
2022-10-05T09:44:45.739Z,12.82
2022-10-05T09:47:52.365Z,12.81
2022-10-05T09:51:11.090Z,12.85
2022-10-05T09:54:34.527Z,12.91
2022-10-05T09:57:53.163Z,12.98
2022-10-05T10:00:31.737Z,13.01
2022-10-05T10:03:47.965Z,13.07
2022-10-05T10:06:41.349Z,13.10
2022-10-05T10:09:29.563Z,13.12
2022-10-05T10:12:33.895Z,13.15
2022-10-05T10:15:52.600Z,13.19
2022-10-05T10:19:20.184Z,13.22
2022-10-05T10:22:45.589Z,13.30
2022-10-05T10:25:34.899Z,13.34
2022-10-05T10:28:55.945Z,13.38
2022-10-05T10:31:50.529Z,13.43
2022-10-05T10:35:20.145Z,13.46
2022-10-05T10:38:31.569Z,13.51
2022-10-05T10:41:38.602Z,13.54
2022-10-05T10:44:52.915Z,13.57
2022-10-05T10:47:55.992Z,13.58
2022-10-05T10:51:01.031Z,13.64
2022-10-05T10:54:26.572Z,13.68
2022-10-05T10:57:10.520Z,13.70
2022-10-05T11:00:20.107Z,13.74
2022-10-05T11:03:44.677Z,13.78
2022-10-05T11:07:21.061Z,13.81
2022-10-05T11:10:24.507Z,13.88
2022-10-05T11:13:36.181Z,13.90
2022-10-05T11:16:45.597Z,13.88
2022-10-05T11:20:05.237Z,13.94
2022-10-05T11:23:00.443Z,14.02
2022-10-05T11:25:51.920Z,14.09
2022-10-05T11:29:07.201Z,14.13
2022-10-05T11:32:04.169Z,14.18
2022-10-05T11:35:20.054Z,14.24
2022-10-05T11:38:20.419Z,14.32
2022-10-05T11:41:34.399Z,14.37
2022-10-05T11:44:53.951Z,14.44
2022-10-05T11:47:29.228Z,14.50
2022-10-05T11:50:16.313Z,14.56
2022-10-05T11:52:55.298Z,14.59
2022-10-05T11:55:31.973Z,14.61
2022-10-05T11:58:14.494Z,14.66
2022-10-05T12:00:51.094Z,14.76
2022-10-05T12:03:49.791Z,14.80
2022-10-05T12:06:36.782Z,14.91
2022-10-05T12:09:23.858Z,14.96
2022-10-05T12:12:14.330Z,14.99
2022-10-05T12:14:56.571Z,15.06
2022-10-05T12:17:37.025Z,15.09
2022-10-05T12:20:18.190Z,15.19
2022-10-05T12:22:56.922Z,15.22
2022-10-05T12:25:36.302Z,15.29
2022-10-05T12:28:14.213Z,15.37
2022-10-05T12:31:11.473Z,15.48
2022-10-05T12:33:52.787Z,15.55
2022-10-05T12:36:59.708Z,15.58
2022-10-05T12:39:40.755Z,15.60
2022-10-05T12:42:28.384Z,15.69
2022-10-05T12:45:22.133Z,15.72
2022-10-05T12:48:13.447Z,15.77
2022-10-05T12:50:49.811Z,15.82
2022-10-05T12:53:43.362Z,15.87
2022-10-05T12:56:22.990Z,15.91
2022-10-05T12:59:04.388Z,15.97
2022-10-05T13:01:43.910Z,15.98
2022-10-05T13:04:36.235Z,16.03
2022-10-05T13:07:33.714Z,16.08
2022-10-05T13:10:22.582Z,16.11
2022-10-05T13:13:19.648Z,16.19
2022-10-05T13:15:57.756Z,16.22
2022-10-05T13:18:39.338Z,16.27
2022-10-05T13:21:15.725Z,16.32
2022-10-05T13:23:59.724Z,16.38
2022-10-05T13:26:37.523Z,16.46
2022-10-05T13:29:22.737Z,16.48
2022-10-05T13:31:56.858Z,16.55
2022-10-05T13:34:38.665Z,16.60
2022-10-05T13:37:20.146Z,16.67
2022-10-05T13:40:06.467Z,16.71
2022-10-05T13:42:48.019Z,16.80
2022-10-05T13:45:24.612Z,16.84
2022-10-05T13:48:14.198Z,16.89
2022-10-05T13:50:54.365Z,17.05
2022-10-05T13:53:37.794Z,17.28
2022-10-05T13:56:21.775Z,17.54
2022-10-05T13:59:03.412Z,17.96
2022-10-05T14:01:43.041Z,18.41
2022-10-05T14:04:20.886Z,18.79
2022-10-05T14:06:51.908Z,19.00
2022-10-05T14:09:35.082Z,19.06
2022-10-05T14:12:21.158Z,19.10
2022-10-05T14:14:53.864Z,19.18
2022-10-05T14:17:42.652Z,19.19
2022-10-05T14:20:27.049Z,19.26
2022-10-05T14:23:03.685Z,19.27
2022-10-05T14:25:50.315Z,19.33
2022-10-05T14:28:29.759Z,19.38
2022-10-05T14:31:02.040Z,19.40
2022-10-05T14:33:33.954Z,19.43
2022-10-05T14:36:03.313Z,19.44
2022-10-05T14:38:52.814Z,19.45
2022-10-05T14:41:26.003Z,19.51
2022-10-05T14:44:03.030Z,19.56
2022-10-05T14:46:36.583Z,19.66
2022-10-05T14:49:23.937Z,19.70
2022-10-05T14:51:53.726Z,19.77
2022-10-05T14:54:36.058Z,19.84
2022-10-05T14:57:25.356Z,19.87
2022-10-05T15:00:16.638Z,19.88
2022-10-05T15:03:39.439Z,19.88
2022-10-05T15:06:22.550Z,19.93
2022-10-05T15:09:18.010Z,20.00
2022-10-05T15:11:53.909Z,20.02
2022-10-05T15:14:28.495Z,20.03
2022-10-05T15:17:03.739Z,20.10
2022-10-05T15:19:56.063Z,20.12
2022-10-05T15:22:41.372Z,20.09
2022-10-05T15:25:17.877Z,20.12
2022-10-05T15:28:16.287Z,20.16
2022-10-05T15:30:59.406Z,20.20
2022-10-05T15:33:39.338Z,20.20
2022-10-05T15:36:20.931Z,20.20
2022-10-05T15:39:05.046Z,20.17
2022-10-05T15:41:55.378Z,20.18
2022-10-05T15:44:47.955Z,20.12
2022-10-05T15:47:27.243Z,20.07
2022-10-05T15:50:08.989Z,19.99
2022-10-05T15:52:48.349Z,19.95
2022-10-05T15:55:36.590Z,19.85
2022-10-05T15:58:48.137Z,19.78
2022-10-05T16:01:23.764Z,19.64
2022-10-05T16:04:02.414Z,19.56
2022-10-05T16:07:01.428Z,19.53
2022-10-05T16:09:49.901Z,19.45
2022-10-05T16:12:36.718Z,19.34
2022-10-05T16:15:26.602Z,19.30
2022-10-05T16:18:34.322Z,19.18
2022-10-05T16:21:19.041Z,19.14
2022-10-05T16:24:20.029Z,19.07
2022-10-05T16:27:00.189Z,18.97
2022-10-05T16:29:46.682Z,18.87
2022-10-05T16:32:24.385Z,18.75
2022-10-05T16:35:10.218Z,18.65
2022-10-05T16:37:51.165Z,18.56
2022-10-05T16:40:33.233Z,18.50
2022-10-05T16:43:21.700Z,18.41
2022-10-05T16:46:10.211Z,18.33
2022-10-05T16:48:53.384Z,18.20
2022-10-05T16:51:32.455Z,18.08
2022-10-05T16:54:19.691Z,18.00
2022-10-05T16:56:56.807Z,17.97
2022-10-05T17:00:08.918Z,17.90
2022-10-05T17:03:06.634Z,17.76
2022-10-05T17:06:13.700Z,17.60
2022-10-05T17:09:24.072Z,17.53
2022-10-05T17:12:19.031Z,17.45
2022-10-05T17:15:12.532Z,17.35
2022-10-05T17:18:09.490Z,17.16
2022-10-05T17:20:49.284Z,17.11
2022-10-05T17:23:53.710Z,17.02
2022-10-05T17:26:57.682Z,16.92
2022-10-05T17:29:47.742Z,16.89
2022-10-05T17:32:39.637Z,16.82
2022-10-05T17:35:22.492Z,16.76
2022-10-05T17:38:22.523Z,16.71
2022-10-05T17:41:17.247Z,16.62
2022-10-05T17:44:26.503Z,16.58
2022-10-05T17:47:00.491Z,16.52
2022-10-05T17:50:16.468Z,16.42
2022-10-05T17:53:23.750Z,16.34
2022-10-05T17:56:06.258Z,16.30
2022-10-05T17:59:03.149Z,16.25
2022-10-05T18:01:39.268Z,16.18
2022-10-05T18:04:39.232Z,16.10
2022-10-05T18:07:23.147Z,16.07
2022-10-05T18:10:24.629Z,16.01
2022-10-05T18:13:21.735Z,16.00
2022-10-05T18:15:51.450Z,15.93
2022-10-05T18:18:59.289Z,15.91
2022-10-05T18:21:40.206Z,15.87
2022-10-05T18:24:42.324Z,15.84
2022-10-05T18:28:12.195Z,15.72
2022-10-05T18:31:05.408Z,15.69
2022-10-05T18:34:15.790Z,15.60
2022-10-05T18:37:12.781Z,15.57
2022-10-05T18:40:04.614Z,15.51
2022-10-05T18:42:44.428Z,15.45
2022-10-05T18:45:27.365Z,15.42
2022-10-05T18:48:15.060Z,15.39
2022-10-05T18:50:55.151Z,15.34
2022-10-05T18:53:39.807Z,15.31
2022-10-05T18:56:26.805Z,15.25
2022-10-05T18:59:20.319Z,15.22
2022-10-05T19:02:19.480Z,15.21
2022-10-05T19:05:45.887Z,15.17
2022-10-05T19:08:22.849Z,15.14
2022-10-05T19:10:58.696Z,15.10
2022-10-05T19:13:46.970Z,15.05
2022-10-05T19:16:43.356Z,15.02
2022-10-05T19:19:45.886Z,14.95
2022-10-05T19:22:32.720Z,14.91
2022-10-05T19:25:35.067Z,14.90
2022-10-05T19:28:19.202Z,14.86
2022-10-05T19:31:08.549Z,14.83
2022-10-05T19:33:59.194Z,14.77
2022-10-05T19:36:47.158Z,14.75
2022-10-05T19:39:32.506Z,14.69
2022-10-05T19:42:27.338Z,14.68
2022-10-05T19:45:12.856Z,14.68
2022-10-05T19:48:02.315Z,14.67
2022-10-05T19:50:33.905Z,14.66
2022-10-05T19:53:13.009Z,14.64
2022-10-05T19:55:43.900Z,14.58
2022-10-05T19:58:22.981Z,14.59
2022-10-05T20:01:01.237Z,14.54
2022-10-05T20:03:35.577Z,14.49
2022-10-05T20:06:10.230Z,14.52
2022-10-05T20:08:44.946Z,14.48
2022-10-05T20:11:16.016Z,14.51
2022-10-05T20:13:46.963Z,14.48
2022-10-05T20:16:47.044Z,14.49
2022-10-05T20:19:55.364Z,14.47
2022-10-05T20:22:31.526Z,14.45
2022-10-05T20:25:02.540Z,14.42
2022-10-05T20:27:50.537Z,14.38
2022-10-05T20:30:22.209Z,14.38
2022-10-05T20:32:52.072Z,14.34
2022-10-05T20:35:23.076Z,14.34
2022-10-05T20:37:51.563Z,14.31
2022-10-05T20:40:21.341Z,14.33
2022-10-05T20:42:50.397Z,14.32
2022-10-05T20:45:18.849Z,14.26
2022-10-05T20:47:47.820Z,14.23
2022-10-05T20:50:17.006Z,14.20
2022-10-05T20:52:47.026Z,14.19
2022-10-05T20:55:16.202Z,14.18
2022-10-05T20:57:46.323Z,14.18
2022-10-05T21:00:16.075Z,14.15
2022-10-05T21:02:46.911Z,14.13
2022-10-05T21:05:15.588Z,14.08
2022-10-05T21:07:44.030Z,14.01
2022-10-05T21:10:14.302Z,13.96
2022-10-05T21:12:43.354Z,13.96
2022-10-05T21:15:12.584Z,13.98
2022-10-05T21:17:41.033Z,13.93
2022-10-05T21:20:11.179Z,13.94
2022-10-05T21:22:39.637Z,13.88
2022-10-05T21:25:09.062Z,13.91
2022-10-05T21:27:38.986Z,13.85
2022-10-05T21:30:09.284Z,13.81
2022-10-05T21:32:43.237Z,13.81
2022-10-05T21:35:13.482Z,13.73
2022-10-05T21:37:42.494Z,13.75
2022-10-05T21:40:11.968Z,13.73
2022-10-05T21:42:41.972Z,13.72
2022-10-05T21:45:12.596Z,13.72
2022-10-05T21:47:41.941Z,13.68
2022-10-05T21:50:12.003Z,13.65
2022-10-05T21:52:40.576Z,13.63
2022-10-05T21:55:11.840Z,13.64
2022-10-05T21:57:44.056Z,13.63
2022-10-05T22:00:14.167Z,13.59
2022-10-05T22:02:43.194Z,13.58
2022-10-05T22:05:11.961Z,13.57
2022-10-05T22:07:41.211Z,13.52
2022-10-05T22:10:10.580Z,13.51
2022-10-05T22:12:39.482Z,13.46
2022-10-05T22:15:11.102Z,13.46
2022-10-05T22:17:42.220Z,13.43
2022-10-05T22:20:15.598Z,13.45
2022-10-05T22:22:44.081Z,13.40
2022-10-05T22:25:13.063Z,13.38
2022-10-05T22:27:43.078Z,13.36
2022-10-05T22:30:15.737Z,13.33
2022-10-05T22:32:45.369Z,13.31
2022-10-05T22:35:14.569Z,13.31
2022-10-05T22:37:43.820Z,13.30
2022-10-05T22:40:12.764Z,13.30
2022-10-05T22:42:41.395Z,13.28
2022-10-05T22:45:12.018Z,13.26
2022-10-05T22:47:41.482Z,13.23
2022-10-05T22:50:11.550Z,13.22
2022-10-05T22:52:40.073Z,13.16
2022-10-05T22:55:09.810Z,13.13
2022-10-05T22:57:42.380Z,13.13
2022-10-05T23:00:14.246Z,13.12
2022-10-05T23:02:45.767Z,13.07
2022-10-05T23:05:17.211Z,13.06
2022-10-05T23:07:48.249Z,13.03
2022-10-05T23:10:19.789Z,13.04
2022-10-05T23:13:00.514Z,13.04
2022-10-05T23:15:30.811Z,13.02
2022-10-05T23:17:59.354Z,12.99
2022-10-05T23:20:28.384Z,12.99
2022-10-05T23:22:56.900Z,12.94
2022-10-05T23:25:25.673Z,12.95
2022-10-05T23:27:54.672Z,12.94
2022-10-05T23:30:23.164Z,12.91
2022-10-05T23:32:53.111Z,12.87
2022-10-05T23:35:21.634Z,12.86
2022-10-05T23:37:50.142Z,12.84
2022-10-05T23:40:19.463Z,12.84
2022-10-05T23:42:48.031Z,12.83
2022-10-05T23:45:17.756Z,12.81
2022-10-05T23:47:47.512Z,12.76
2022-10-05T23:50:17.725Z,12.76
2022-10-05T23:52:48.406Z,12.77
2022-10-05T23:55:17.116Z,12.75
2022-10-05T23:57:46.620Z,12.74
